sensor_id;sensor_type;location;lat;lon;timestamp;pressure;altitude;pressure_sealevel;temperature;humidity
38558;BME280;24333;42.626;23.308;2022-11-15T00:54:58;92753.78;;;2.94;100.00
38558;BME280;24333;42.626;23.308;2022-11-15T00:57:24;92752.19;;;2.93;100.00
38558;BME280;24333;42.626;23.308;2022-11-15T00:59:49;92754.53;;;2.95;100.00
38558;BME280;24333;42.626;23.308;2022-11-15T01:02:15;92735.69;;;2.86;100.00
38558;BME280;24333;42.626;23.308;2022-11-15T01:04:41;92747.09;;;2.92;100.00
38558;BME280;24333;42.626;23.308;2022-11-15T01:07:08;92733.59;;;2.83;100.00
38558;BME280;24333;42.626;23.308;2022-11-15T03:09:40;92731.50;;;2.62;100.00
38558;BME280;24333;42.626;23.308;2022-11-15T03:12:30;92699.94;;;2.45;100.00
38558;BME280;24333;42.626;23.308;2022-11-15T03:22:51;92691.38;;;2.43;100.00
38558;BME280;24333;42.626;23.308;2022-11-15T09:51:38;92549.47;;;5.49;100.00
38558;BME280;24333;42.626;23.308;2022-11-15T10:00:21;92556.59;;;5.78;100.00
38558;BME280;24333;42.626;23.308;2022-11-15T10:55:23;92483.28;;;6.58;100.00
38558;BME280;24333;42.626;23.308;2022-11-15T10:57:53;92482.38;;;6.54;100.00
38558;BME280;24333;42.626;23.308;2022-11-15T11:05:31;92476.78;;;6.75;100.00
38558;BME280;24333;42.626;23.308;2022-11-15T11:08:25;92468.41;;;6.80;100.00
38558;BME280;24333;42.626;23.308;2022-11-15T11:10:55;92457.91;;;6.79;100.00
38558;BME280;24333;42.626;23.308;2022-11-15T11:13:33;92432.94;;;6.57;100.00
38558;BME280;24333;42.626;23.308;2022-11-15T11:25:36;92451.50;;;7.00;100.00
38558;BME280;24333;42.626;23.308;2022-11-15T11:29:02;92432.13;;;6.85;100.00
38558;BME280;24333;42.626;23.308;2022-11-15T11:36:25;92427.00;;;7.12;100.00
38558;BME280;24333;42.626;23.308;2022-11-15T11:42:15;92411.53;;;6.97;100.00
38558;BME280;24333;42.626;23.308;2022-11-15T11:45:05;92419.16;;;7.07;100.00
38558;BME280;24333;42.626;23.308;2022-11-15T11:56:58;92386.09;;;7.33;100.00
38558;BME280;24333;42.626;23.308;2022-11-15T12:01:57;92379.44;;;7.31;100.00
38558;BME280;24333;42.626;23.308;2022-11-15T12:04:32;92392.16;;;7.43;100.00
38558;BME280;24333;42.626;23.308;2022-11-15T13:02:20;92322.06;;;8.20;100.00
38558;BME280;24333;42.626;23.308;2022-11-15T13:04:47;92328.53;;;8.31;100.00
38558;BME280;24333;42.626;23.308;2022-11-15T13:21:47;92323.59;;;8.57;100.00
38558;BME280;24333;42.626;23.308;2022-11-15T13:24:32;92289.84;;;8.58;100.00
38558;BME280;24333;42.626;23.308;2022-11-15T13:26:58;92281.81;;;8.65;100.00
38558;BME280;24333;42.626;23.308;2022-11-15T13:29:23;92289.06;;;8.80;100.00
38558;BME280;24333;42.626;23.308;2022-11-15T13:31:49;92309.22;;;8.99;100.00
38558;BME280;24333;42.626;23.308;2022-11-15T13:34:28;92307.13;;;8.92;100.00
38558;BME280;24333;42.626;23.308;2022-11-15T13:40:25;92303.88;;;8.83;100.00
38558;BME280;24333;42.626;23.308;2022-11-15T13:42:53;92289.97;;;8.65;100.00
38558;BME280;24333;42.626;23.308;2022-11-15T13:45:20;92292.34;;;8.66;100.00
38558;BME280;24333;42.626;23.308;2022-11-15T13:56:47;92309.56;;;8.35;100.00
38558;BME280;24333;42.626;23.308;2022-11-15T13:59:30;92303.78;;;8.17;100.00
38558;BME280;24333;42.626;23.308;2022-11-15T14:30:31;92268.34;;;7.18;100.00
38558;BME280;24333;42.626;23.308;2022-11-15T14:59:35;92277.09;;;6.63;100.00
38558;BME280;24333;42.626;23.308;2022-11-15T15:02:01;92276.97;;;6.44;100.00
38558;BME280;24333;42.626;23.308;2022-11-15T15:04:27;92267.72;;;6.45;100.00
38558;BME280;24333;42.626;23.308;2022-11-15T15:10:02;92258.78;;;6.28;100.00
38558;BME280;24333;42.626;23.308;2022-11-15T15:12:28;92269.97;;;6.27;100.00
38558;BME280;24333;42.626;23.308;2022-11-15T15:14:55;92266.38;;;6.22;100.00
38558;BME280;24333;42.626;23.308;2022-11-15T15:17:21;92260.88;;;6.19;100.00
38558;BME280;24333;42.626;23.308;2022-11-15T15:22:22;92272.81;;;6.18;100.00
38558;BME280;24333;42.626;23.308;2022-11-15T15:24:52;92268.44;;;6.13;100.00
38558;BME280;24333;42.626;23.308;2022-11-15T15:27:18;92263.81;;;6.14;100.00
38558;BME280;24333;42.626;23.308;2022-11-15T15:36:37;92249.19;;;6.02;100.00
38558;BME280;24333;42.626;23.308;2022-11-15T15:39:02;92255.06;;;6.04;100.00
38558;BME280;24333;42.626;23.308;2022-11-15T15:41:28;92263.81;;;6.14;100.00
38558;BME280;24333;42.626;23.308;2022-11-15T15:43:54;92266.03;;;6.24;100.00
38558;BME280;24333;42.626;23.308;2022-11-15T15:46:20;92262.63;;;6.27;100.00
38558;BME280;24333;42.626;23.308;2022-11-15T15:48:46;92253.72;;;6.27;100.00
38558;BME280;24333;42.626;23.308;2022-11-15T15:51:40;92269.28;;;6.46;100.00
38558;BME280;24333;42.626;23.308;2022-11-15T15:54:05;92255.41;;;6.47;100.00
38558;BME280;24333;42.626;23.308;2022-11-15T15:56:31;92241.06;;;6.47;100.00
38558;BME280;24333;42.626;23.308;2022-11-15T15:58:58;92262.50;;;6.68;100.00
38558;BME280;24333;42.626;23.308;2022-11-15T16:21:05;92251.47;;;6.45;100.00
38558;BME280;24333;42.626;23.308;2022-11-15T16:23:30;92263.72;;;6.55;100.00
38558;BME280;24333;42.626;23.308;2022-11-15T16:25:56;92253.41;;;6.44;100.00
38558;BME280;24333;42.626;23.308;2022-11-15T16:34:39;92269.22;;;6.42;100.00
38558;BME280;24333;42.626;23.308;2022-11-15T16:52:45;92253.22;;;6.08;100.00
38558;BME280;24333;42.626;23.308;2022-11-15T16:55:20;92260.59;;;6.08;100.00
38558;BME280;24333;42.626;23.308;2022-11-15T16:57:49;92258.00;;;5.99;100.00
38558;BME280;24333;42.626;23.308;2022-11-15T17:00:17;92231.56;;;5.80;100.00
38558;BME280;24333;42.626;23.308;2022-11-15T17:03:12;92250.56;;;5.96;100.00
38558;BME280;24333;42.626;23.308;2022-11-15T17:05:38;92230.53;;;5.85;100.00
38558;BME280;24333;42.626;23.308;2022-11-15T17:08:03;92233.88;;;5.94;100.00
38558;BME280;24333;42.626;23.308;2022-11-15T17:10:29;92224.22;;;5.81;100.00
38558;BME280;24333;42.626;23.308;2022-11-15T17:12:55;92235.72;;;5.90;100.00
38558;BME280;24333;42.626;23.308;2022-11-15T17:15:21;92216.47;;;5.79;100.00
38558;BME280;24333;42.626;23.308;2022-11-15T17:17:53;92222.19;;;5.77;100.00
38558;BME280;24333;42.626;23.308;2022-11-15T17:57:10;92226.53;;;5.25;100.00
38558;BME280;24333;42.626;23.308;2022-11-15T17:59:35;92207.75;;;5.16;100.00
38558;BME280;24333;42.626;23.308;2022-11-15T18:02:01;92214.03;;;5.20;100.00
38558;BME280;24333;42.626;23.308;2022-11-15T18:08:17;92222.50;;;5.19;100.00
38558;BME280;24333;42.626;23.308;2022-11-15T18:10:42;92203.47;;;5.03;100.00
38558;BME280;24333;42.626;23.308;2022-11-15T18:13:08;92199.44;;;4.97;100.00
38558;BME280;24333;42.626;23.308;2022-11-15T18:15:34;92195.47;;;4.94;100.00
38558;BME280;24333;42.626;23.308;2022-11-15T18:17:59;92185.72;;;4.89;100.00
38558;BME280;24333;42.626;23.308;2022-11-15T18:20:25;92196.63;;;4.93;100.00
38558;BME280;24333;42.626;23.308;2022-11-15T18:23:18;92200.56;;;4.96;100.00
38558;BME280;24333;42.626;23.308;2022-11-15T18:25:50;92181.69;;;4.83;100.00
38558;BME280;24333;42.626;23.308;2022-11-15T18:28:16;92182.13;;;4.85;100.00
38558;BME280;24333;42.626;23.308;2022-11-15T18:30:41;92188.88;;;4.91;100.00
38558;BME280;24333;42.626;23.308;2022-11-15T18:37:06;92197.88;;;4.83;100.00
38558;BME280;24333;42.626;23.308;2022-11-15T18:39:32;92184.81;;;4.73;100.00
38558;BME280;24333;42.626;23.308;2022-11-15T18:41:57;92180.78;;;4.67;100.00
38558;BME280;24333;42.626;23.308;2022-11-15T18:44:23;92174.69;;;4.70;100.00
38558;BME280;24333;42.626;23.308;2022-11-15T18:46:48;92181.78;;;4.74;100.00
38558;BME280;24333;42.626;23.308;2022-11-15T18:49:15;92176.84;;;4.64;100.00
38558;BME280;24333;42.626;23.308;2022-11-15T18:51:41;92202.59;;;4.74;100.00
38558;BME280;24333;42.626;23.308;2022-11-15T18:54:09;92179.75;;;4.59;100.00
38558;BME280;24333;42.626;23.308;2022-11-15T18:56:35;92183.47;;;4.67;100.00
38558;BME280;24333;42.626;23.308;2022-11-15T18:59:01;92185.03;;;4.68;100.00
38558;BME280;24333;42.626;23.308;2022-11-15T19:01:30;92179.31;;;4.69;100.00
38558;BME280;24333;42.626;23.308;2022-11-15T19:04:06;92187.19;;;4.74;100.00
38558;BME280;24333;42.626;23.308;2022-11-15T19:06:36;92169.06;;;4.62;100.00
38558;BME280;24333;42.626;23.308;2022-11-15T19:09:21;92178.53;;;4.69;100.00
38558;BME280;24333;42.626;23.308;2022-11-15T19:11:51;92174.47;;;4.62;100.00
38558;BME280;24333;42.626;23.308;2022-11-15T19:14:17;92182.34;;;4.68;100.00
38558;BME280;24333;42.626;23.308;2022-11-15T19:23:14;92168.63;;;4.48;100.00
38558;BME280;24333;42.626;23.308;2022-11-15T19:25:39;92159.75;;;4.47;100.00
38558;BME280;24333;42.626;23.308;2022-11-15T19:28:05;92163.69;;;4.50;100.00
38558;BME280;24333;42.626;23.308;2022-11-15T19:30:30;92155.81;;;4.45;100.00
38558;BME280;24333;42.626;23.308;2022-11-15T19:32:56;92163.00;;;4.53;100.00
38558;BME280;24333;42.626;23.308;2022-11-15T19:35:21;92155.69;;;4.54;100.00
38558;BME280;24333;42.626;23.308;2022-11-15T19:37:46;92160.19;;;4.49;100.00
38558;BME280;24333;42.626;23.308;2022-11-15T19:40:12;92160.53;;;4.48;100.00
38558;BME280;24333;42.626;23.308;2022-11-15T19:42:37;92159.06;;;4.51;100.00
38558;BME280;24333;42.626;23.308;2022-11-15T19:45:03;92147.94;;;4.52;100.00
38558;BME280;24333;42.626;23.308;2022-11-15T19:47:29;92154.22;;;4.56;100.00
38558;BME280;24333;42.626;23.308;2022-11-15T19:49:55;92155.81;;;4.57;100.00
38558;BME280;24333;42.626;23.308;2022-11-15T19:52:21;92136.00;;;4.53;100.00
38558;BME280;24333;42.626;23.308;2022-11-15T19:54:48;92141.84;;;4.55;100.00
38558;BME280;24333;42.626;23.308;2022-11-15T19:57:13;92146.78;;;4.66;100.00
38558;BME280;24333;42.626;23.308;2022-11-15T19:59:39;92134.84;;;4.67;100.00
38558;BME280;24333;42.626;23.308;2022-11-15T20:02:04;92150.59;;;4.77;100.00
38558;BME280;24333;42.626;23.308;2022-11-15T20:04:30;92142.72;;;4.72;100.00
38558;BME280;24333;42.626;23.308;2022-11-15T20:10:00;92162.88;;;4.49;100.00
38558;BME280;24333;42.626;23.308;2022-11-15T20:12:26;92173.47;;;4.55;100.00
38558;BME280;24333;42.626;23.308;2022-11-15T20:14:52;92152.00;;;4.46;100.00
38558;BME280;24333;42.626;23.308;2022-11-15T20:38:06;92154.69;;;4.58;100.00
38558;BME280;24333;42.626;23.308;2022-11-15T20:40:40;92143.88;;;4.46;100.00
38558;BME280;24333;42.626;23.308;2022-11-15T20:43:13;92140.50;;;4.49;100.00
38558;BME280;24333;42.626;23.308;2022-11-15T20:52:32;92125.78;;;4.34;100.00
38558;BME280;24333;42.626;23.308;2022-11-15T20:54:58;92141.53;;;4.32;100.00
38558;BME280;24333;42.626;23.308;2022-11-15T20:57:43;92149.28;;;4.46;100.00
38558;BME280;24333;42.626;23.308;2022-11-15T21:00:32;92127.34;;;4.35;100.00
38558;BME280;24333;42.626;23.308;2022-11-15T21:06:33;92119.44;;;4.55;100.00
38558;BME280;24333;42.626;23.308;2022-11-15T21:27:06;92099.38;;;5.21;100.00
38558;BME280;24333;42.626;23.308;2022-11-15T21:29:33;92089.09;;;5.27;100.00
38558;BME280;24333;42.626;23.308;2022-11-15T21:32:02;92084.66;;;5.35;100.00
38558;BME280;24333;42.626;23.308;2022-11-15T21:34:29;92094.97;;;5.45;100.00
38558;BME280;24333;42.626;23.308;2022-11-15T21:36:55;92094.53;;;5.43;100.00
38558;BME280;24333;42.626;23.308;2022-11-15T21:39:21;92078.44;;;5.18;100.00
38558;BME280;24333;42.626;23.308;2022-11-15T21:41:47;92073.38;;;5.17;100.00
38558;BME280;24333;42.626;23.308;2022-11-15T21:44:13;92094.16;;;5.29;100.00
38558;BME280;24333;42.626;23.308;2022-11-15T21:46:39;92077.75;;;5.21;100.00
38558;BME280;24333;42.626;23.308;2022-11-15T21:49:05;92081.63;;;5.37;100.00
38558;BME280;24333;42.626;23.308;2022-11-15T21:51:31;92059.13;;;5.32;100.00
38558;BME280;24333;42.626;23.308;2022-11-15T21:53:58;92072.47;;;5.41;100.00
38558;BME280;24333;42.626;23.308;2022-11-15T21:56:26;92059.59;;;5.22;100.00
38558;BME280;24333;42.626;23.308;2022-11-15T21:58:53;92077.91;;;5.13;100.00
38558;BME280;24333;42.626;23.308;2022-11-15T22:01:20;92059.91;;;5.04;100.00
38558;BME280;24333;42.626;23.308;2022-11-15T22:04:05;92064.25;;;5.21;100.00
38558;BME280;24333;42.626;23.308;2022-11-15T22:06:32;92052.63;;;5.21;100.00
38558;BME280;24333;42.626;23.308;2022-11-15T22:08:59;92059.97;;;5.20;100.00
38558;BME280;24333;42.626;23.308;2022-11-15T22:11:25;92047.28;;;5.09;100.00
38558;BME280;24333;42.626;23.308;2022-11-15T22:13:51;92042.31;;;5.11;100.00
38558;BME280;24333;42.626;23.308;2022-11-15T22:16:16;92058.13;;;5.25;100.00
38558;BME280;24333;42.626;23.308;2022-11-15T22:18:42;92035.34;;;5.10;100.00
38558;BME280;24333;42.626;23.308;2022-11-15T22:21:10;92031.22;;;5.00;100.00
38558;BME280;24333;42.626;23.308;2022-11-15T22:23:36;92045.59;;;5.04;100.00
38558;BME280;24333;42.626;23.308;2022-11-15T22:26:03;92052.50;;;5.01;100.00
38558;BME280;24333;42.626;23.308;2022-11-15T22:28:30;92055.88;;;4.98;100.00
38558;BME280;24333;42.626;23.308;2022-11-15T22:30:57;92041.63;;;4.85;100.00
38558;BME280;24333;42.626;23.308;2022-11-15T22:33:26;92046.78;;;4.90;100.00
38558;BME280;24333;42.626;23.308;2022-11-15T22:35:52;92039.56;;;4.95;100.00
38558;BME280;24333;42.626;23.308;2022-11-15T22:38:19;92026.31;;;4.89;100.00
38558;BME280;24333;42.626;23.308;2022-11-15T22:40:45;92027.00;;;4.86;100.00
38558;BME280;24333;42.626;23.308;2022-11-15T22:43:12;92029.44;;;4.91;100.00
38558;BME280;24333;42.626;23.308;2022-11-15T22:58:29;92021.78;;;4.65;100.00
38558;BME280;24333;42.626;23.308;2022-11-15T23:01:19;92016.38;;;4.53;100.00
38558;BME280;24333;42.626;23.308;2022-11-15T23:03:46;92025.28;;;4.53;100.00
38558;BME280;24333;42.626;23.308;2022-11-15T23:08:46;92001.00;;;4.41;100.00
38558;BME280;24333;42.626;23.308;2022-11-15T23:11:12;92014.19;;;4.42;100.00
38558;BME280;24333;42.626;23.308;2022-11-15T23:13:56;92017.22;;;4.28;100.00
38558;BME280;24333;42.626;23.308;2022-11-15T23:16:22;92007.91;;;4.26;100.00
38558;BME280;24333;42.626;23.308;2022-11-15T23:18:53;92006.22;;;4.21;100.00
38558;BME280;24333;42.626;23.308;2022-11-15T23:25:12;91997.78;;;4.35;100.00
38558;BME280;24333;42.626;23.308;2022-11-15T23:27:42;91988.88;;;4.34;100.00
38558;BME280;24333;42.626;23.308;2022-11-15T23:30:08;91986.63;;;4.37;100.00
38558;BME280;24333;42.626;23.308;2022-11-15T23:33:04;91960.91;;;4.27;100.00
38558;BME280;24333;42.626;23.308;2022-11-15T23:35:55;91953.25;;;4.29;100.00
38558;BME280;24333;42.626;23.308;2022-11-15T23:38:20;91958.81;;;4.48;100.00
38558;BME280;24333;42.626;23.308;2022-11-15T23:41:23;91965.19;;;4.56;100.00
38558;BME280;24333;42.626;23.308;2022-11-15T23:49:12;91963.50;;;4.64;100.00
38558;BME280;24333;42.626;23.308;2022-11-15T23:51:38;91978.59;;;4.53;100.00
38558;BME280;24333;42.626;23.308;2022-11-15T23:54:05;91967.75;;;4.65;100.00
